Pagina principale
METAR-TAF:

METAR-TAF

Aeroporti :

Aeroporto di Bergamo-Orio al Serio

Bergamo, Italia

latitudine: 45-40N, longitudine: 009-42E, altezza: 238 m

Osservazione

Il bollettino è stato emesso 41 minuti fa, alle 01:20 UTC
Vento 2 kt da direzioni variabili
Temperature 5°C
Umidità 87%
Pressione 1019 hPa
Visibilità: 5000 m
foschia

METAR: LIME 240120Z AUTO VRB02KT 5000 BR NCD 05/03 Q1019

Ora: 03:01 (02:01 UTC)

Previsione

Il bollettino è stato emesso 3 ore e 1 minuti fa, alle 23:00 UTC
Previsione valida dal 24 alle 00 UTC al 24 alle 24 UTC
Vento 5 kt da direzioni variabili
Visibilità: 6000 m
Probabilità 30% :
Temporaneamente
dal 24 alle 02 UTC al 24 alle 07 UTC
Visibilità: 1200 m
banchi di nebbia

TAF: LIME 232300Z 2400/2424 VRB05KT 6000 NSC PROB30 TEMPO 2402/2407 1200 BCFG

Osservazioni e previsioni meteorologiche di più di 4000 aeroporti (messaggi METAR e TAF).

Le stazioni disponibili sono rappresentate dai dischi gialli e rossi sulla carta.

Puntare il mouse per vedere il nome della stazione.

Clicca sopra per visualizzare le osservazioni e previsioni meteorologiche.

Per cambiare la mappa : fare clic sui pulsanti verdi con una croce nera per ingrandire, il pulsante verde con un trattino per diminuire, o sulla freccia verde per le mappe adiacenti.


METAR-TAF: